EDT,Max TemperatureF,Mean TemperatureF,Min TemperatureF,Max Dew PointF,MeanDew PointF,Min DewpointF,Max Humidity, Mean Humidity, Min Humidity, Max Sea Level PressureIn, Mean Sea Level PressureIn, Min Sea Level PressureIn, Max VisibilityMiles, Mean VisibilityMiles, Min VisibilityMiles, Max Wind SpeedMPH, Mean Wind SpeedMPH, Max Gust SpeedMPH,PrecipitationIn, CloudCover, Events, WindDirDegrees
2011-10-1,55,47,39,36,34,31,83,66,40,30.26,30.18,30.05,10,10,10,20,16,29,0.00,4,,1
2011-10-2,64,50,37,41,35,30,89,64,28,30.24,30.17,30.09,10,10,10,17,10,24,0.00,0,,335
2011-10-3,66,55,44,45,40,37,86,64,35,30.24,30.17,30.11,10,10,10,13,7,,0.00,1,,5
2011-10-4,73,58,43,46,43,37,89,63,29,30.31,30.26,30.22,10,10,10,8,4,,0.00,0,,271
2011-10-5,72,58,44,55,47,42,96,76,36,30.32,30.28,30.24,10,10,10,14,5,,0.00,0,,358
2011-10-6,79,60,42,54,48,43,100,81,39,30.36,30.32,30.27,10,6,0,8,3,,0.00,0,Fog,119
2011-10-7,81,66,52,55,53,50,94,67,36,30.40,30.35,30.31,10,8,2,13,7,,0.00,0,,188
2011-10-8,82,68,54,54,51,48,83,59,35,30.39,30.34,30.30,10,10,6,12,8,,0.00,0,,196
2011-10-9,81,68,55,55,53,52,90,64,36,30.41,30.35,30.30,10,9,6,9,5,,0.00,0,,204
2011-10-10,82,66,51,54,51,47,89,68,35,30.32,30.25,30.16,10,9,3,14,2,,0.00,0,,124
2011-10-11,80,64,48,55,49,44,100,66,28,30.15,30.08,30.00,10,9,2,14,4,17,0.00,0,,144
2011-10-12,71,61,51,57,53,48,94,80,47,30.00,29.88,29.76,10,9,5,17,6,22,0.00,4,,89
2011-10-13,66,60,55,57,55,51,100,87,57,29.76,29.63,29.40,10,7,2,9,2,,0.04,7,Rain,167
2011-10-14,59,54,48,57,50,39,100,86,66,29.49,29.37,29.28,10,8,2,23,12,34,0.20,8,Rain,238
2011-10-15,57,52,46,42,37,32,86,65,40,29.75,29.55,29.44,10,10,10,31,19,44,0.01,6,Rain,263
2011-10-16,60,54,46,45,39,30,83,63,33,29.77,29.70,29.63,10,10,10,23,13,32,0.00,4,Rain,249
2011-10-17,59,52,45,36,33,30,63,51,39,29.75,29.67,29.62,10,10,10,28,15,39,0.00,2,,248
2011-10-18,55,46,37,45,39,36,93,74,53,29.88,29.82,29.74,10,10,7,14,7,,0.00,5,Rain,319
2011-10-19,50,47,44,46,43,39,96,89,81,29.87,29.70,29.39,10,8,2,36,16,51,1.19,8,Rain,24
2011-10-20,46,44,42,46,43,39,100,93,81,29.67,29.35,29.22,10,6,2,34,24,51,0.97,8,Rain,342
2011-10-21,48,45,42,41,37,35,93,76,62,30.08,29.92,29.66,10,10,7,14,9,21,0.00,8,Rain,289
2011-10-22,60,46,33,40,36,30,96,72,42,30.10,30.07,30.04,10,10,7,9,6,18,0.00,1,,226
2011-10-23,63,50,36,46,39,33,89,70,46,30.04,29.96,29.87,10,10,10,12,5,,0.03,2,Rain,215
2011-10-24,60,52,44,48,42,30,94,73,37,30.09,29.91,29.80,10,9,2,23,12,31,0.38,3,Rain,247
2011-10-25,48,44,39,46,43,35,100,91,74,30.17,30.00,29.84,10,8,2,17,8,23,0.42,7,Rain,71
2011-10-26,46,46,43,47,44,38,97,91,82,29.93,29.87,29.81,10,6,2,16,12,23,0.01,8,Rain,27
2011-10-27,50,42,36,37,35,31,93,79,52,30.15,30.00,29.92,10,10,10,10,7,,0.00,4,Rain,336
2011-10-28,48,38,28,37,32,28,96,78,52,30.23,30.16,30.10,10,9,2,8,4,,0.00,3,,236
2011-10-29,48,42,35,40,36,30,100,83,66,30.13,30.06,30.03,10,9,1,10,4,,0.15,5,Rain,205
2011-10-30,50,39,28,38,31,27,100,88,46,30.22,30.15,30.08,10,4,0,13,4,20,0.00,3,Fog,206
2011-10-31,55,48,41,40,37,35,89,69,49,30.16,30.07,30.03,10,10,7,10,8,,0.00,5,Rain,174